Meteorología y climatología de Navarra
Datos de la estación - Meteo Navarra

Estación de Sartaguda GN

Altitud 310 m.


Datos desde el 11/10/2018 hasta el 12/10/2018 en horario solar
Los datos son PROVISIONALES

Anterior Página 1 de 1 Siguiente Descargar: Formato para Excel 2000 o superior   Formato csv   Formato para OpenOffice Calc
Fecha Temperatura Humedad relativa Radiación global Insolación Precipitación Velocidad viento 10 m Velocidad viento 10 m Dirección viento 10 m
ºC % W/m² s l/m² m/s km/h º
11/10/2018 0:00 14.6 78 0.0 0 0.0 2.4 8.6 127
11/10/2018 0:10 15.0 78 0.0 0 0.0 4.4 15.8 161
11/10/2018 0:20 15.3 77 0.0 0 0.0 4.5 16.2 156
11/10/2018 0:30 15.2 80 0.0 0 0.0 4.1 14.8 127
11/10/2018 0:40 14.5 83 0.0 0 0.0 3.8 13.5 121
11/10/2018 0:50 14.3 85 0.0 0 0.0 3.6 12.8 124
11/10/2018 1:00 14.4 85 0.0 0 0.0 4.0 14.3 114
11/10/2018 1:10 14.3 85 0.0 0 0.0 2.7 9.8 106
11/10/2018 1:20 14.1 86 0.0 0 0.0 2.0 7.1 89
11/10/2018 1:30 14.0 87 0.0 0 0.0 2.1 7.5 78
11/10/2018 1:40 14.0 87 0.0 0 0.0 3.1 11.3 80
11/10/2018 1:50 14.0 87 0.0 0 0.0 2.3 8.3 97
11/10/2018 2:00 13.8 89 0.0 0 0.0 2.6 9.3 122
11/10/2018 2:10 13.8 89 0.0 0 0.0 3.5 12.7 137
11/10/2018 2:20 13.8 89 0.0 0 0.0 3.5 12.6 147
11/10/2018 2:30 13.6 90 0.0 0 0.0 2.5 8.8 165
11/10/2018 2:40 13.6 91 0.0 0 0.0 2.2 8.0 151
11/10/2018 2:50 14.0 91 0.0 0 0.0 4.0 14.5 134
11/10/2018 3:00 14.2 88 0.0 0 0.0 4.9 17.6 139
11/10/2018 3:10 14.4 87 0.0 0 0.0 5.0 18.1 146
11/10/2018 3:20 14.4 88 0.0 0 0.0 4.8 17.1 158
11/10/2018 3:30 14.2 89 0.0 0 0.0 3.7 13.4 164
11/10/2018 3:40 14.1 90 0.0 0 0.0 4.2 15.0 160
11/10/2018 3:50 14.0 91 0.0 0 0.0 4.2 15.0 155
11/10/2018 4:00 13.8 92 0.0 0 0.0 3.4 12.2 164
11/10/2018 4:10 13.6 93 0.0 0 0.0 4.1 14.6 153
11/10/2018 4:20 13.8 94 0.0 0 0.0 4.6 16.7 128
11/10/2018 4:30 13.8 93 0.0 0 0.0 4.5 16.1 125
11/10/2018 4:40 13.8 93 0.0 0 0.0 4.5 16.2 121
11/10/2018 4:50 13.7 93 0.0 0 0.0 4.0 14.4 123
11/10/2018 5:00 13.6 94 0.0 0 0.0 1.7 6.2 139
11/10/2018 5:10 13.5 93 0.0 0 0.0 0.7 2.5 307
11/10/2018 5:20 13.8 94 0.0 0 0.0 3.8 13.8 140
11/10/2018 5:30 14.2 93 0.0 0 0.0 6.0 21.6 123
11/10/2018 5:40 14.2 93 0.0 0 0.0 6.2 22.2 119
11/10/2018 5:50 14.2 93 0.0 0 0.0 4.9 17.7 124
11/10/2018 6:00 14.2 93 0.0 0 0.0 5.2 18.6 121
11/10/2018 6:10 14.2 93 0.0 0 0.0 5.6 20.1 125
11/10/2018 6:20 14.1 93 8.8 0 0.0 6.7 24.0 127
11/10/2018 6:30 14.2 93 20.4 0 0.0 6.6 23.9 129
11/10/2018 6:40 14.3 92 26.6 0 0.0 5.4 19.3 134
11/10/2018 6:50 14.2 92 22.0 0 0.0 4.9 17.6 139
11/10/2018 7:00 14.3 92 25.8 0 0.0 4.1 14.8 147
11/10/2018 7:10 14.3 93 43.8 18 0.0 2.3 8.4 190
11/10/2018 7:20 14.3 92 57.4 48 0.0 1.4 5.1 160
11/10/2018 7:30 14.4 92 73.4 0 0.0 1.6 5.6 120
11/10/2018 7:40 14.4 92 98.5 0 0.0 1.2 4.3 158
11/10/2018 7:50 14.7 91 112.9 0 0.0 3.5 12.7 131
11/10/2018 8:00 15.0 89 141.5 10 0.0 2.9 10.6 131
11/10/2018 8:10 15.4 88 146.0 0 0.0 3.9 14.1 132
11/10/2018 8:20 15.6 87 144.4 0 0.0 3.5 12.4 136
11/10/2018 8:30 15.8 85 155.5 0 0.0 5.3 18.9 128
11/10/2018 8:40 16.0 83 224.9 278 0.0 6.5 23.3 124
11/10/2018 8:50 16.4 82 184.7 116 0.0 5.7 20.5 121
11/10/2018 9:00 16.6 82 341.5 452 0.0 4.4 15.7 115
11/10/2018 9:10 17.8 78 512.5 600 0.0 4.4 15.8 119
11/10/2018 9:20 18.0 76 237.3 94 0.0 5.2 18.6 118
11/10/2018 9:30 17.8 77 191.7 0 0.0 5.7 20.7 119
11/10/2018 9:40 18.1 76 131.9 0 0.0 6.0 21.7 118
11/10/2018 9:50 18.1 75 80.7 0 0.0 5.4 19.5 124
11/10/2018 10:00 18.2 75 79.9 0 0.0 5.0 18.1 125
11/10/2018 10:10 18.1 76 82.7 0 0.0 5.4 19.4 121
11/10/2018 10:20 18.3 76 72.4 0 0.0 4.6 16.4 126
11/10/2018 10:30 18.4 75 93.1 0 0.0 3.3 12.0 121
11/10/2018 10:40 18.6 75 90.8 0 0.0 2.7 9.8 104
11/10/2018 10:50 18.6 75 137.4 0 0.0 2.0 7.3 114
11/10/2018 11:00 19.2 72 165.2 0 0.0 2.5 9.1 131
11/10/2018 11:10 19.5 70 151.1 0 0.0 4.2 15.0 128
11/10/2018 11:20 19.6 69 200.3 0 0.0 4.6 16.6 126
11/10/2018 11:30 20.0 68 232.7 0 0.0 4.4 15.7 127
11/10/2018 11:40 20.3 67 231.4 0 0.0 4.4 15.7 130
11/10/2018 11:50 20.5 66 252.3 0 0.0 4.5 16.1 128
11/10/2018 12:00 20.9 65 240.3 0 0.0 4.4 16.0 120
11/10/2018 12:10 20.9 65 206.4 0 0.0 5.2 18.6 127
11/10/2018 12:20 20.8 66 173.8 0 0.0 5.6 20.1 129
11/10/2018 12:30 20.9 66 164.8 0 0.0 5.4 19.5 130
11/10/2018 12:40 20.9 66 199.2 0 0.0 4.7 17.1 137
11/10/2018 12:50 21.1 66 279.4 0 0.0 3.8 13.5 124
11/10/2018 13:00 21.6 65 466.7 302 0.0 3.8 13.6 111
11/10/2018 13:10 22.6 63 747.2 600 0.0 4.4 16.0 107
11/10/2018 13:20 23.7 59 730.9 600 0.0 5.0 17.8 126
11/10/2018 13:30 24.5 54 624.5 600 0.0 5.6 20.1 144
11/10/2018 13:40 25.2 49 623.6 600 0.0 6.4 22.9 161
11/10/2018 13:50 25.3 48 606.0 588 0.0 7.4 26.7 160
11/10/2018 14:00 25.1 49 400.3 412 0.0 7.5 27.1 158
11/10/2018 14:10 24.6 50 416.2 600 0.0 7.9 28.5 160
11/10/2018 14:20 24.6 50 284.7 308 0.0 7.4 26.6 161
11/10/2018 14:30 24.2 50 154.9 0 0.0 7.1 25.6 161
11/10/2018 14:40 24.0 51 101.1 0 0.0 6.8 24.6 157
11/10/2018 14:50 23.8 52 94.2 0 0.0 5.5 19.7 158
11/10/2018 15:00 23.8 52 67.0 0 0.0 4.7 16.8 151
11/10/2018 15:10 23.7 53 90.9 0 0.0 3.8 13.8 152
11/10/2018 15:20 23.7 53 54.7 0 0.0 4.2 15.1 156
11/10/2018 15:30 23.0 59 114.6 0 0.0 5.5 19.7 173
11/10/2018 15:40 22.4 63 163.6 150 0.0 2.1 7.5 188
11/10/2018 15:50 22.8 63 130.8 0 0.0 0.7 2.7 199
11/10/2018 16:00 23.0 62 155.9 542 0.0 0.0 0.1 201
11/10/2018 16:10 23.2 61 144.8 600 0.0 1.0 3.7 63
11/10/2018 16:20 23.1 63 113.5 240 0.0 1.7 6.3 87
11/10/2018 16:30 23.0 61 82.5 0 0.0 2.0 7.3 133
11/10/2018 16:40 22.7 64 75.5 0 0.0 2.5 9.0 111
11/10/2018 16:50 22.2 64 53.7 0 0.0 2.7 9.7 120
11/10/2018 17:00 22.2 62 39.0 0 0.0 2.9 10.4 120
11/10/2018 17:10 21.8 63 17.0 0 0.0 2.2 8.0 112
11/10/2018 17:20 21.4 66 0.0 0 0.0 2.3 8.1 120
11/10/2018 17:30 21.2 66 0.0 0 0.0 1.3 4.8 141
11/10/2018 17:40 21.1 69 0.0 0 0.0 0.7 2.5 285
11/10/2018 17:50 20.6 75 0.0 0 0.0 1.5 5.4 323
11/10/2018 18:00 20.2 76 0.0 0 0.0 1.4 5.1 332
11/10/2018 18:10 19.9 77 0.0 0 0.0 1.5 5.4 324
11/10/2018 18:20 19.6 79 0.0 0 0.0 0.9 3.3 285
11/10/2018 18:30 19.4 79 0.0 0 0.0 1.1 3.8 324
11/10/2018 18:40 18.8 82 0.0 0 0.0 0.4 1.4 268
11/10/2018 18:50 18.5 83 0.0 0 0.0 0.4 1.6 251
11/10/2018 19:00 18.2 83 0.0 0 0.0 0.2 0.5 207
11/10/2018 19:10 17.9 85 0.0 0 0.0 0.6 2.1 218
11/10/2018 19:20 17.4 87 0.0 0 0.0 1.0 3.6 156
11/10/2018 19:30 17.3 86 0.0 0 0.0 0.7 2.4 99
11/10/2018 19:40 17.0 86 0.0 0 0.0 0.9 3.1 72
11/10/2018 19:50 16.8 87 0.0 0 0.0 0.3 1.0 227
11/10/2018 20:00 16.5 87 0.0 0 0.0 0.6 2.1 264
11/10/2018 20:10 16.3 88 0.0 0 0.0 1.3 4.5 107
11/10/2018 20:20 16.0 89 0.0 0 0.0 0.7 2.4 115
11/10/2018 20:30 15.9 89 0.0 0 0.0 0.5 1.7 91
11/10/2018 20:40 15.7 90 0.0 0 0.0 1.4 4.9 87
11/10/2018 20:50 15.4 90 0.0 0 0.0 0.6 2.1 319
11/10/2018 21:00 15.5 89 0.0 0 0.0 1.0 3.4 4
11/10/2018 21:10 15.3 90 0.0 0 0.0 0.6 2.2 1
11/10/2018 21:20 14.9 92 0.0 0 0.0 0.5 1.9 236
11/10/2018 21:30 14.9 93 0.0 0 0.0 0.4 1.4 197
11/10/2018 21:40 14.9 91 0.0 0 0.0 0.6 2.0 332
11/10/2018 21:50 14.8 91 0.0 0 0.0 0.3 1.1 2
11/10/2018 22:00 14.5 92 0.0 0 0.0 0.7 2.4 291
11/10/2018 22:10 14.5 92 0.0 0 0.0 1.2 4.5 309
11/10/2018 22:20 14.6 92 0.0 0 0.0 1.0 3.7 347
11/10/2018 22:30 14.5 92 0.0 0 0.0 0.8 2.8 327
11/10/2018 22:40 14.2 92 0.0 0 0.0 0.7 2.6 283
11/10/2018 22:50 13.9 92 0.0 0 0.0 0.9 3.4 267
11/10/2018 23:00 13.8 92 0.0 0 0.0 0.1 0.4 283
11/10/2018 23:10 13.4 93 0.0 0 0.0 0.3 1.2 203
11/10/2018 23:20 13.3 93 0.0 0 0.0 0.8 2.7 199
11/10/2018 23:30 13.4 93 0.0 0 0.0 0.9 3.1 285
11/10/2018 23:40 13.5 93 0.0 0 0.0 0.5 1.7 346
11/10/2018 23:50 13.2 94 0.0 0 0.0 0.2 0.7 204
Anterior Página 1 de 1 Siguiente

NOTA: Tipo de datos según el color:
   - Valores diarios o 10 minutos correctos
   - Valores diarios calculados a partir de un número de datos 10 minutos menor que 144 y mayor que 120, o de un número de datos semihorarios menor que 48 y mayor que 40 (caso de las estaciones de Riegos de Navarra y del MARM)
   - Valores diez minutos estimados


Contacto        Enlaces        Aviso legal